Alford, Massachusetts
Current Conditions -  °F | °C
As of 8:14 AM on Friday 24 Oct 2014 (Local Time) from KPSF Reporting Station
Overcast Overcast  
Wind Chill: 37°   Ceiling: 1200
Heat Index: 42°   Visibility: 10mi
Dew Point: 40°   Wind: 8mph
Humidity: 92%   Direction: 330°NNW
Pressure: 29.78"   Gusts: 17mph
Location:  42.1779°N, 73.3332°W
Report Text: KPSF 241214Z AUTO 33007G15KT 10SM BKN012 BKN032 OVC050 06/04 A2978 RMK AO2 T00560044
Loading
Personal Weather Stations






























Interactive Weather Map
Tropical Storm Tracking
New forecast layout! Learn more

10-Day Weather Forecast

Advertisements
Track Severe Weather on mobile